sensor_id;sensor_type;location;lat;lon;timestamp;pressure;altitude;pressure_sealevel;temperature;humidity
22582;BME280;47125;48.542;9.052;2022-12-18T00:06:45;96999.13;;;-7.98;nan
22582;BME280;47125;48.542;9.052;2022-12-18T00:16:49;96996.44;;;-7.84;nan
22582;BME280;47125;48.542;9.052;2022-12-18T00:26:52;96991.00;;;-8.06;nan
22582;BME280;47125;48.542;9.052;2022-12-18T00:36:56;97009.53;;;-7.85;nan
22582;BME280;47125;48.542;9.052;2022-12-18T00:46:58;97003.19;;;-8.20;nan
22582;BME280;47125;48.542;9.052;2022-12-18T00:57:02;96998.44;;;-8.53;nan
22582;BME280;47125;48.542;9.052;2022-12-18T01:07:04;97015.50;;;-8.24;nan
22582;BME280;47125;48.542;9.052;2022-12-18T01:17:08;97013.38;;;-8.05;nan
22582;BME280;47125;48.542;9.052;2022-12-18T01:27:11;97012.81;;;-8.22;nan
22582;BME280;47125;48.542;9.052;2022-12-18T01:37:15;97024.19;;;-7.98;nan
22582;BME280;47125;48.542;9.052;2022-12-18T01:47:18;97027.81;;;-8.01;nan
22582;BME280;47125;48.542;9.052;2022-12-18T01:57:24;97012.44;;;-7.77;nan
22582;BME280;47125;48.542;9.052;2022-12-18T02:07:30;97008.31;;;-7.67;nan
22582;BME280;47125;48.542;9.052;2022-12-18T02:17:36;97001.38;;;-7.41;nan
22582;BME280;47125;48.542;9.052;2022-12-18T02:27:41;97014.88;;;-7.49;nan
22582;BME280;47125;48.542;9.052;2022-12-18T02:37:47;97034.50;;;-7.32;nan
22582;BME280;47125;48.542;9.052;2022-12-18T02:47:51;97039.38;;;-7.02;nan
22582;BME280;47125;48.542;9.052;2022-12-18T02:57:54;97036.69;;;-6.88;nan
22582;BME280;47125;48.542;9.052;2022-12-18T03:07:59;97026.19;;;-6.87;nan
22582;BME280;47125;48.542;9.052;2022-12-18T03:18:04;97032.00;;;-6.71;nan
22582;BME280;47125;48.542;9.052;2022-12-18T03:28:09;97033.47;;;-6.92;nan
22582;BME280;47125;48.542;9.052;2022-12-18T03:38:13;97029.31;;;-7.07;nan
22582;BME280;47125;48.542;9.052;2022-12-18T03:48:17;97034.19;;;-7.28;nan
22582;BME280;47125;48.542;9.052;2022-12-18T03:58:24;97037.63;;;-7.40;nan
22582;BME280;47125;48.542;9.052;2022-12-18T04:08:29;97026.09;;;-7.48;nan
22582;BME280;47125;48.542;9.052;2022-12-18T04:18:32;97033.88;;;-7.36;nan
22582;BME280;47125;48.542;9.052;2022-12-18T04:28:36;97032.97;;;-7.74;nan
22582;BME280;47125;48.542;9.052;2022-12-18T04:38:39;97032.41;;;-7.52;nan
22582;BME280;47125;48.542;9.052;2022-12-18T04:48:44;97042.28;;;-7.84;nan
22582;BME280;47125;48.542;9.052;2022-12-18T04:58:47;97025.28;;;-7.88;nan
22582;BME280;47125;48.542;9.052;2022-12-18T05:08:51;97026.44;;;-8.06;nan
22582;BME280;47125;48.542;9.052;2022-12-18T05:18:53;97028.97;;;-8.31;nan
22582;BME280;47125;48.542;9.052;2022-12-18T05:28:57;97011.00;;;-8.47;nan
22582;BME280;47125;48.542;9.052;2022-12-18T05:39:00;97023.94;;;-8.08;nan
22582;BME280;47125;48.542;9.052;2022-12-18T05:49:03;97032.66;;;-8.09;nan
22582;BME280;47125;48.542;9.052;2022-12-18T05:59:06;97028.50;;;-8.11;nan
22582;BME280;47125;48.542;9.052;2022-12-18T06:09:10;97030.47;;;-8.15;nan
22582;BME280;47125;48.542;9.052;2022-12-18T06:19:13;97046.78;;;-8.00;nan
22582;BME280;47125;48.542;9.052;2022-12-18T06:29:18;97048.25;;;-7.96;nan
22582;BME280;47125;48.542;9.052;2022-12-18T06:39:20;97068.78;;;-6.64;nan
22582;BME280;47125;48.542;9.052;2022-12-18T06:49:24;97070.56;;;-8.08;nan
22582;BME280;47125;48.542;9.052;2022-12-18T06:59:30;97083.91;;;-8.14;nan
22582;BME280;47125;48.542;9.052;2022-12-18T07:09:34;97084.19;;;-8.31;nan
22582;BME280;47125;48.542;9.052;2022-12-18T07:19:37;97102.16;;;-8.15;nan
22582;BME280;47125;48.542;9.052;2022-12-18T07:29:41;97111.91;;;-7.92;nan
22582;BME280;47125;48.542;9.052;2022-12-18T07:39:43;97105.59;;;-8.15;nan
22582;BME280;47125;48.542;9.052;2022-12-18T07:49:47;97112.38;;;-8.26;nan
22582;BME280;47125;48.542;9.052;2022-12-18T07:59:49;97113.84;;;-7.82;nan
22582;BME280;47125;48.542;9.052;2022-12-18T08:09:53;97113.72;;;-6.38;nan
22582;BME280;47125;48.542;9.052;2022-12-18T08:19:56;97116.84;;;-5.97;nan
22582;BME280;47125;48.542;9.052;2022-12-18T08:29:59;97113.41;;;-5.74;nan
22582;BME280;47125;48.542;9.052;2022-12-18T08:40:02;97130.47;;;-5.70;nan
22582;BME280;47125;48.542;9.052;2022-12-18T08:50:07;97130.81;;;-5.50;nan
22582;BME280;47125;48.542;9.052;2022-12-18T09:00:10;97108.00;;;-5.23;nan
22582;BME280;47125;48.542;9.052;2022-12-18T09:10:15;97108.94;;;-5.13;nan
22582;BME280;47125;48.542;9.052;2022-12-18T09:20:18;97100.53;;;-4.82;nan
22582;BME280;47125;48.542;9.052;2022-12-18T09:30:22;97089.41;;;-4.17;nan
22582;BME280;47125;48.542;9.052;2022-12-18T09:40:26;97091.94;;;-3.62;nan
22582;BME280;47125;48.542;9.052;2022-12-18T09:50:33;97087.94;;;-3.13;nan
22582;BME280;47125;48.542;9.052;2022-12-18T10:00:36;97092.34;;;-2.72;nan
22582;BME280;47125;48.542;9.052;2022-12-18T10:10:41;97095.16;;;-2.13;nan
22582;BME280;47125;48.542;9.052;2022-12-18T10:20:46;97103.94;;;-1.75;nan
22582;BME280;47125;48.542;9.052;2022-12-18T10:30:52;97089.78;;;-1.05;nan
22582;BME280;47125;48.542;9.052;2022-12-18T10:40:57;97093.09;;;-0.74;nan
22582;BME280;47125;48.542;9.052;2022-12-18T10:51:02;97092.13;;;-0.17;nan
22582;BME280;47125;48.542;9.052;2022-12-18T11:01:13;97087.34;;;0.06;nan
22582;BME280;47125;48.542;9.052;2022-12-18T11:11:20;97065.94;;;0.45;nan
22582;BME280;47125;48.542;9.052;2022-12-18T11:21:23;97066.19;;;1.48;nan
22582;BME280;47125;48.542;9.052;2022-12-18T11:31:27;97052.78;;;1.34;nan
22582;BME280;47125;48.542;9.052;2022-12-18T11:41:30;97047.28;;;2.12;nan
22582;BME280;47125;48.542;9.052;2022-12-18T11:51:51;97037.25;;;3.06;nan
22582;BME280;47125;48.542;9.052;2022-12-18T12:01:58;97027.84;;;3.04;nan
22582;BME280;47125;48.542;9.052;2022-12-18T12:12:10;97032.28;;;2.95;nan
22582;BME280;47125;48.542;9.052;2022-12-18T12:22:18;97009.56;;;2.94;nan
22582;BME280;47125;48.542;9.052;2022-12-18T12:32:34;97002.09;;;2.49;nan
22582;BME280;47125;48.542;9.052;2022-12-18T12:42:41;97008.47;;;2.39;nan
22582;BME280;47125;48.542;9.052;2022-12-18T12:53:07;97016.00;;;2.26;nan
22582;BME280;47125;48.542;9.052;2022-12-18T13:03:12;97028.41;;;1.91;nan
22582;BME280;47125;48.542;9.052;2022-12-18T13:13:19;97029.19;;;1.50;nan
22582;BME280;47125;48.542;9.052;2022-12-18T13:23:27;97028.97;;;1.69;nan
22582;BME280;47125;48.542;9.052;2022-12-18T13:44:13;97030.44;;;0.41;nan
22582;BME280;47125;48.542;9.052;2022-12-18T13:54:23;97018.44;;;1.69;nan
22582;BME280;47125;48.542;9.052;2022-12-18T14:04:30;97014.06;;;1.52;nan
22582;BME280;47125;48.542;9.052;2022-12-18T14:14:33;97023.56;;;1.19;nan
22582;BME280;47125;48.542;9.052;2022-12-18T14:24:37;97014.31;;;0.89;nan
22582;BME280;47125;48.542;9.052;2022-12-18T14:34:40;97011.31;;;-0.50;nan
22582;BME280;47125;48.542;9.052;2022-12-18T14:44:44;97023.53;;;0.40;nan
22582;BME280;47125;48.542;9.052;2022-12-18T14:55:13;97021.03;;;0.21;nan
22582;BME280;47125;48.542;9.052;2022-12-18T15:05:18;97024.28;;;-0.12;nan
22582;BME280;47125;48.542;9.052;2022-12-18T15:25:46;97024.84;;;-1.69;nan
22582;BME280;47125;48.542;9.052;2022-12-18T15:35:55;97022.22;;;-1.78;nan
22582;BME280;47125;48.542;9.052;2022-12-18T15:45:59;97017.75;;;-0.72;nan
22582;BME280;47125;48.542;9.052;2022-12-18T15:56:02;97021.03;;;-0.61;nan
22582;BME280;47125;48.542;9.052;2022-12-18T16:06:31;97027.41;;;-0.82;nan
22582;BME280;47125;48.542;9.052;2022-12-18T16:16:52;97040.91;;;-0.77;nan
22582;BME280;47125;48.542;9.052;2022-12-18T16:26:56;97023.84;;;-1.96;nan
22582;BME280;47125;48.542;9.052;2022-12-18T16:37:01;97020.81;;;-2.01;nan
22582;BME280;47125;48.542;9.052;2022-12-18T16:47:07;97035.59;;;-1.72;nan
22582;BME280;47125;48.542;9.052;2022-12-18T16:57:11;97013.09;;;-1.93;nan
22582;BME280;47125;48.542;9.052;2022-12-18T17:07:15;97010.44;;;-0.78;nan
22582;BME280;47125;48.542;9.052;2022-12-18T17:17:18;97011.63;;;-1.67;nan
22582;BME280;47125;48.542;9.052;2022-12-18T17:27:24;96998.69;;;-1.69;nan
22582;BME280;47125;48.542;9.052;2022-12-18T17:37:26;96990.66;;;3.46;nan
22582;BME280;47125;48.542;9.052;2022-12-18T17:47:30;96985.72;;;-0.76;nan
22582;BME280;47125;48.542;9.052;2022-12-18T17:57:35;96991.09;;;-1.24;nan
22582;BME280;47125;48.542;9.052;2022-12-18T18:07:39;97004.75;;;-1.39;nan
22582;BME280;47125;48.542;9.052;2022-12-18T18:17:42;96988.34;;;-1.51;nan
22582;BME280;47125;48.542;9.052;2022-12-18T18:27:45;96982.28;;;-1.51;nan
22582;BME280;47125;48.542;9.052;2022-12-18T18:37:48;97001.16;;;-1.57;nan
22582;BME280;47125;48.542;9.052;2022-12-18T18:47:52;96985.00;;;-1.43;nan
22582;BME280;47125;48.542;9.052;2022-12-18T18:57:55;97002.94;;;-1.68;nan
22582;BME280;47125;48.542;9.052;2022-12-18T19:07:59;96991.75;;;-1.31;nan
22582;BME280;47125;48.542;9.052;2022-12-18T19:18:01;96988.03;;;-1.19;nan
22582;BME280;47125;48.542;9.052;2022-12-18T19:28:05;96967.91;;;-1.28;nan
22582;BME280;47125;48.542;9.052;2022-12-18T19:38:08;96969.56;;;-1.94;nan
22582;BME280;47125;48.542;9.052;2022-12-18T19:48:12;96958.69;;;-1.61;nan
22582;BME280;47125;48.542;9.052;2022-12-18T19:58:14;96941.31;;;-1.62;nan
22582;BME280;47125;48.542;9.052;2022-12-18T20:08:18;96943.88;;;-0.13;nan
22582;BME280;47125;48.542;9.052;2022-12-18T20:18:22;96918.13;;;-0.27;nan
22582;BME280;47125;48.542;9.052;2022-12-18T20:28:26;96899.31;;;-0.05;nan
22582;BME280;47125;48.542;9.052;2022-12-18T20:38:30;96880.56;;;0.08;nan
22582;BME280;47125;48.542;9.052;2022-12-18T20:48:35;96892.56;;;-1.07;nan
22582;BME280;47125;48.542;9.052;2022-12-18T20:58:40;96880.81;;;-1.03;nan
22582;BME280;47125;48.542;9.052;2022-12-18T21:08:44;96906.19;;;-0.67;nan
22582;BME280;47125;48.542;9.052;2022-12-18T21:18:47;96910.59;;;-0.67;nan
22582;BME280;47125;48.542;9.052;2022-12-18T21:28:52;96895.47;;;-0.73;nan
22582;BME280;47125;48.542;9.052;2022-12-18T21:38:57;96903.75;;;-0.78;nan
22582;BME280;47125;48.542;9.052;2022-12-18T21:49:01;96901.94;;;-0.77;nan
22582;BME280;47125;48.542;9.052;2022-12-18T21:59:04;96893.25;;;-0.78;nan
22582;BME280;47125;48.542;9.052;2022-12-18T22:09:08;96879.13;;;-0.67;nan
22582;BME280;47125;48.542;9.052;2022-12-18T22:19:12;96870.22;;;-0.57;nan
22582;BME280;47125;48.542;9.052;2022-12-18T22:29:17;96873.09;;;-0.50;nan
22582;BME280;47125;48.542;9.052;2022-12-18T22:39:37;96877.91;;;-0.45;nan
22582;BME280;47125;48.542;9.052;2022-12-18T22:49:41;96890.53;;;-0.31;nan
22582;BME280;47125;48.542;9.052;2022-12-18T22:59:44;96880.84;;;-0.31;nan
22582;BME280;47125;48.542;9.052;2022-12-18T23:09:48;96908.31;;;-0.25;nan
22582;BME280;47125;48.542;9.052;2022-12-18T23:19:51;96902.09;;;-0.24;nan
22582;BME280;47125;48.542;9.052;2022-12-18T23:29:55;96884.31;;;-0.13;nan
22582;BME280;47125;48.542;9.052;2022-12-18T23:39:57;96881.31;;;-0.18;nan
22582;BME280;47125;48.542;9.052;2022-12-18T23:50:01;96889.56;;;-0.13;nan
